Time;durP1;ratioP1;P1;durP2;ratioP2;P2;SDS_P1;SDS_P2;PMS_P1;PMS_P2;Temp;Humidity;BMP_temperature;BMP_pressure;BME280_temperature;BME280_humidity;BME280_pressure;Samples;Min_cycle;Max_cycle;Signal;HPM_P1;HPM_P2
2022/08/09 00:00:55;;;;;;;2.63;2.40;;;16.30;99.90;;;;;;5015524;28;20124;-83
2022/08/09 00:03:21;;;;;;;2.50;2.00;;;16.20;99.90;;;;;;4984804;28;20044;-84
2022/08/09 00:05:46;;;;;;;2.70;2.30;;;16.00;99.90;;;;;;5013337;28;20121;-84
2022/08/09 00:08:12;;;;;;;4.32;3.55;;;15.90;99.90;;;;;;5029717;28;20167;-84
2022/08/09 00:10:38;;;;;;;4.40;2.33;;;15.80;99.90;;;;;;5005840;28;20037;-83
2022/08/09 00:13:06;;;;;;;2.40;1.98;;;15.70;99.90;;;;;;5027289;28;20041;-84
2022/08/09 00:15:32;;;;;;;17.42;2.00;;;15.70;99.90;;;;;;5018304;28;20394;-85
2022/08/09 00:17:58;;;;;;;3.33;1.70;;;15.50;99.90;;;;;;5017170;28;20583;-84
2022/08/09 00:20:23;;;;;;;2.20;1.98;;;15.40;99.90;;;;;;5021128;28;20077;-84
2022/08/09 00:22:49;;;;;;;3.65;2.28;;;15.30;99.90;;;;;;5014116;28;20064;-84
2022/08/09 00:25:15;;;;;;;2.55;2.15;;;15.30;99.90;;;;;;5026252;28;20037;-85
2022/08/09 00:27:41;;;;;;;;;;;15.20;99.90;;;;;;5028228;28;20065;-85
2022/08/09 00:30:07;;;;;;;5.03;2.60;;;15.20;99.90;;;;;;5016851;28;19928;-85
2022/08/09 00:32:33;;;;;;;3.65;2.42;;;15.20;99.90;;;;;;5006346;28;20057;-85
2022/08/09 00:34:59;;;;;;;3.08;2.47;;;15.20;99.90;;;;;;5025832;28;20049;-85
2022/08/09 00:37:25;;;;;;;2.72;2.50;;;15.20;99.90;;;;;;5033015;28;20042;-84
2022/08/09 00:39:51;;;;;;;;;;;15.20;99.90;;;;;;5004776;28;20122;-84
2022/08/09 00:42:17;;;;;;;3.45;2.63;;;15.20;99.90;;;;;;5009106;28;19961;-84
2022/08/09 00:44:42;;;;;;;2.88;2.50;;;15.30;99.90;;;;;;4987280;28;20038;-85
2022/08/09 00:47:08;;;;;;;4.15;2.53;;;15.20;99.90;;;;;;5022326;28;20490;-84
2022/08/09 00:49:34;;;;;;;3.15;2.58;;;15.30;99.90;;;;;;5017450;28;20038;-84
2022/08/09 00:52:00;;;;;;;3.10;2.22;;;15.20;99.90;;;;;;5022878;28;20645;-83
2022/08/09 00:54:26;;;;;;;3.33;2.20;;;15.20;99.90;;;;;;5017463;28;20131;-84
2022/08/09 00:56:52;;;;;;;2.40;1.75;;;15.10;99.90;;;;;;5003305;28;20092;-84
2022/08/09 00:59:18;;;;;;;2.20;1.70;;;15.10;99.90;;;;;;5022360;28;20034;-84
2022/08/09 01:01:46;;;;;;;1.90;1.40;;;15.00;99.90;;;;;;5023813;28;20394;-85
2022/08/09 01:04:29;;;;;;;88.10;4.47;;;15.00;99.90;;;;;;5048918;28;20041;-85
2022/08/09 01:07:19;;;;;;;15.07;1.50;;;14.90;99.90;;;;;;5024664;28;20054;-85
2022/08/09 01:10:11;;;;;;;0.95;0.60;;;14.80;99.90;;;;;;5005625;28;20037;-84
2022/08/09 01:12:41;;;;;;;1.58;0.50;;;14.50;99.90;;;;;;5021587;28;20044;-84
2022/08/09 01:15:13;;;;;;;0.60;0.40;;;14.40;99.90;;;;;;5121736;23;20064;-85
2022/08/09 01:17:50;;;;;;;0.82;0.40;;;14.30;99.90;;;;;;5040185;28;20048;-84
2022/08/09 01:20:40;;;;;;;1.13;0.52;;;14.20;99.90;;;;;;5044583;28;20401;-84
2022/08/09 01:23:15;;;;;;;0.60;0.40;;;14.10;99.90;;;;;;5042026;28;20107;-84
2022/08/09 01:25:55;;;;;;;0.95;0.40;;;14.10;99.90;;;;;;5048554;28;20040;-84
2022/08/09 01:28:23;;;;;;;0.80;0.50;;;14.10;99.90;;;;;;5044758;28;20127;-85
2022/08/09 01:30:52;;;;;;;0.98;0.55;;;14.00;99.90;;;;;;5042074;28;20048;-84
2022/08/09 01:33:20;;;;;;;0.95;0.50;;;14.00;99.90;;;;;;5032412;28;20038;-84
2022/08/09 01:35:52;;;;;;;0.82;0.50;;;14.00;99.90;;;;;;5042722;28;20570;-84
2022/08/09 01:38:21;;;;;;;0.90;0.50;;;14.00;99.90;;;;;;5041549;28;20126;-85
2022/08/09 01:40:53;;;;;;;0.40;0.40;;;14.00;99.90;;;;;;5045306;28;20040;-85
2022/08/09 01:43:20;;;;;;;0.52;0.30;;;14.00;99.90;;;;;;5030338;28;20037;-85
2022/08/09 01:45:47;;;;;;;0.50;0.40;;;14.00;99.90;;;;;;5033280;28;20120;-85
2022/08/09 01:48:15;;;;;;;0.70;0.40;;;14.00;99.90;;;;;;5024788;28;20393;-84
2022/08/09 01:50:46;;;;;;;0.60;0.47;;;14.00;99.90;;;;;;5020133;28;20102;-85
2022/08/09 01:53:13;;;;;;;0.85;0.50;;;14.00;99.90;;;;;;5042423;28;20051;-85
2022/08/09 01:55:40;;;;;;;1.02;0.40;;;14.00;99.90;;;;;;5031272;28;20049;-85
2022/08/09 01:58:08;;;;;;;0.90;0.35;;;14.00;99.90;;;;;;5013749;28;20396;-85
2022/08/09 02:00:34;;;;;;;0.50;0.40;;;14.10;99.90;;;;;;5047286;28;20068;-85
2022/08/09 02:03:01;;;;;;;1.30;0.80;;;14.10;99.90;;;;;;5037243;28;20061;-85
2022/08/09 02:05:28;;;;;;;1.20;0.50;;;14.00;99.90;;;;;;5024859;28;20040;-85
2022/08/09 02:08:03;;;;;;;26.25;1.65;;;14.00;99.90;;;;;;5051113;28;20500;-85
2022/08/09 02:10:32;;;;;;;0.60;0.50;;;14.00;99.90;;;;;;5032118;28;20057;-85
2022/08/09 02:13:03;;;;;;;0.50;0.40;;;14.00;99.90;;;;;;5041375;28;20041;-84
2022/08/09 02:15:32;;;;;;;0.60;0.40;;;14.00;99.90;;;;;;5041237;28;20521;-85
2022/08/09 02:17:59;;;;;;;0.40;0.35;;;13.90;99.90;;;;;;5043398;28;20042;-84
2022/08/09 02:20:27;;;;;;;0.52;0.30;;;14.00;99.90;;;;;;5048404;28;20469;-84
2022/08/09 02:23:05;;;;;;;0.30;0.28;;;13.90;99.90;;;;;;5048370;28;20496;-84
2022/08/09 02:25:33;;;;;;;1.52;0.50;;;14.00;99.90;;;;;;5041483;28;20045;-84
2022/08/09 02:28:05;;;;;;;0.30;0.20;;;13.90;99.90;;;;;;5042217;28;20044;-85
2022/08/09 02:30:38;;;;;;;0.20;0.20;;;13.80;99.90;;;;;;5040483;28;20044;-85
2022/08/09 02:33:05;;;;;;;0.35;0.20;;;13.80;99.90;;;;;;5036720;28;20045;-85
2022/08/09 02:35:34;;;;;;;0.40;0.30;;;13.80;99.90;;;;;;5026642;28;20045;-85
2022/08/09 02:38:01;;;;;;;0.30;0.25;;;13.80;99.90;;;;;;5047254;28;20061;-85
2022/08/09 02:40:28;;;;;;;0.30;0.30;;;13.80;99.90;;;;;;5035838;28;20037;-85
2022/08/09 02:42:54;;;;;;;;;;;13.80;99.90;;;;;;5024358;28;20127;-85
2022/08/09 02:45:25;;;;;;;1.10;0.30;;;13.80;99.90;;;;;;5026660;28;20027;-84
2022/08/09 02:47:54;;;;;;;0.43;0.40;;;13.80;99.90;;;;;;5036557;28;20049;-85
2022/08/09 02:50:27;;;;;;;0.30;0.30;;;13.80;99.90;;;;;;5028243;28;20094;-85
2022/08/09 02:52:58;;;;;;;0.40;0.40;;;13.70;99.90;;;;;;5040638;28;20045;-84
2022/08/09 02:55:26;;;;;;;0.50;0.40;;;13.70;99.90;;;;;;5045473;28;20432;-84
2022/08/09 02:57:53;;;;;;;0.30;0.30;;;13.70;99.90;;;;;;5043384;28;20041;-85
2022/08/09 03:00:19;;;;;;;0.43;0.20;;;13.60;99.90;;;;;;5036123;28;20038;-85
2022/08/09 03:02:50;;;;;;;1.10;0.30;;;13.60;99.90;;;;;;5007006;28;20091;-85
2022/08/09 03:05:17;;;;;;;0.30;0.20;;;13.60;99.90;;;;;;5035157;28;20037;-85
2022/08/09 03:07:43;;;;;;;0.30;0.30;;;13.60;99.90;;;;;;5023283;28;20446;-85
2022/08/09 03:10:10;;;;;;;0.20;0.20;;;13.60;99.90;;;;;;5037311;28;20499;-84
2022/08/09 03:12:38;;;;;;;0.20;0.20;;;13.60;99.90;;;;;;5045721;28;20040;-85
2022/08/09 03:15:06;;;;;;;0.20;0.20;;;13.50;99.90;;;;;;5019279;28;20056;-85
2022/08/09 03:17:35;;;;;;;0.30;0.30;;;13.50;99.90;;;;;;5037694;28;20409;-85
2022/08/09 03:20:03;;;;;;;0.52;0.30;;;13.50;99.90;;;;;;5048081;28;20040;-85
2022/08/09 03:22:31;;;;;;;56.47;3.17;;;13.40;99.90;;;;;;5033317;28;20049;-85
2022/08/09 03:24:58;;;;;;;52.53;3.17;;;13.40;99.90;;;;;;5018480;28;20069;-84
2022/08/09 03:27:24;;;;;;;10.05;0.77;;;13.40;99.90;;;;;;5019595;28;20119;-85
2022/08/09 03:29:51;;;;;;;5.93;0.50;;;13.30;99.90;;;;;;5038480;28;20025;-86
2022/08/09 03:32:18;;;;;;;0.22;0.20;;;13.70;99.90;;;;;;5044816;28;20056;-86
2022/08/09 03:34:44;;;;;;;0.25;0.20;;;13.30;99.90;;;;;;5029789;28;20033;-80
2022/08/09 03:37:10;;;;;;;5.07;0.47;;;13.20;99.90;;;;;;5024963;28;20029;-79
2022/08/09 03:39:36;;;;;;;0.82;0.25;;;13.10;99.90;;;;;;5027309;28;20563;-80
2022/08/09 03:42:01;;;;;;;0.10;0.10;;;13.10;99.90;;;;;;5006814;28;20029;-80
2022/08/09 03:44:28;;;;;;;0.32;0.22;;;13.10;99.90;;;;;;5007908;28;20039;-80
2022/08/09 03:46:54;;;;;;;0.22;0.20;;;13.00;99.90;;;;;;5036176;28;20038;-80
2022/08/09 03:49:23;;;;;;;0.90;0.20;;;13.10;99.90;;;;;;5045481;28;20036;-80
2022/08/09 03:51:53;;;;;;;0.10;0.10;;;13.10;99.90;;;;;;5037609;28;20029;-79
2022/08/09 03:54:19;;;;;;;0.93;0.20;;;13.10;99.90;;;;;;5023552;28;20045;-79
2022/08/09 03:56:45;;;;;;;0.20;0.20;;;13.10;99.90;;;;;;5035314;28;21127;-80
2022/08/09 03:59:13;;;;;;;0.20;0.20;;;13.10;99.90;;;;;;5047658;28;20111;-79
2022/08/09 04:01:41;;;;;;;0.30;0.20;;;13.10;99.90;;;;;;5030037;28;20041;-79
2022/08/09 04:04:07;;;;;;;0.10;0.10;;;13.10;99.90;;;;;;5046399;28;20029;-80
2022/08/09 04:06:35;;;;;;;0.30;0.30;;;13.10;99.90;;;;;;5026753;28;20059;-80
2022/08/09 04:09:02;;;;;;;0.30;0.30;;;13.00;99.90;;;;;;5042794;28;20042;-80
2022/08/09 04:11:44;;;;;;;0.20;0.10;;;13.00;99.90;;;;;;5034833;28;20409;-80
2022/08/09 04:14:10;;;;;;;0.40;0.20;;;13.00;99.90;;;;;;5028130;28;20050;-80
2022/08/09 04:16:36;;;;;;;;;;;12.90;99.90;;;;;;5031579;28;20069;-79
2022/08/09 04:19:02;;;;;;;0.52;0.20;;;12.90;99.90;;;;;;5043929;28;19960;-80
2022/08/09 04:21:27;;;;;;;0.30;0.30;;;12.90;99.90;;;;;;5028046;28;20037;-80
2022/08/09 04:23:53;;;;;;;2.90;0.40;;;12.90;99.90;;;;;;5046990;28;20283;-81
2022/08/09 04:26:19;;;;;;;6.13;0.40;;;12.80;99.90;;;;;;5028765;28;20041;-81
2022/08/09 04:28:44;;;;;;;4.85;0.65;;;12.80;99.90;;;;;;5009470;28;20041;-82
2022/08/09 04:31:10;;;;;;;0.73;0.40;;;12.80;99.90;;;;;;5039379;28;20045;-82
2022/08/09 04:33:39;;;;;;;0.67;0.40;;;12.80;99.90;;;;;;5044117;28;20287;-80
2022/08/09 04:36:05;;;;;;;0.88;0.50;;;12.70;99.90;;;;;;5029792;28;20033;-82
2022/08/09 04:38:31;;;;;;;0.40;0.30;;;12.70;99.90;;;;;;5044912;28;20033;-81
2022/08/09 04:40:57;;;;;;;0.80;0.40;;;12.70;99.90;;;;;;5017416;28;20048;-80
2022/08/09 04:43:22;;;;;;;4.78;0.40;;;12.70;99.90;;;;;;5012651;28;20280;-81
2022/08/09 04:45:48;;;;;;;4.63;0.40;;;12.70;99.90;;;;;;5011981;28;20041;-82
2022/08/09 04:48:14;;;;;;;20.23;1.53;;;12.70;99.90;;;;;;5047013;28;20036;-82
2022/08/09 04:50:41;;;;;;;4.28;0.50;;;12.70;99.90;;;;;;5039520;28;20846;-81
2022/08/09 04:53:07;;;;;;;1.08;0.40;;;12.70;99.90;;;;;;5008356;28;20106;-81
2022/08/09 04:55:33;;;;;;;;;;;12.60;99.90;;;;;;5005934;28;20553;-80
2022/08/09 04:57:59;;;;;;;0.40;0.30;;;12.60;99.90;;;;;;5024395;28;20062;-80
2022/08/09 05:00:25;;;;;;;0.50;0.38;;;12.50;99.90;;;;;;5035169;28;20068;-81
2022/08/09 05:02:51;;;;;;;0.30;0.30;;;12.60;99.90;;;;;;5025922;28;20037;-81
2022/08/09 05:05:16;;;;;;;0.47;0.30;;;12.70;99.90;;;;;;5005129;28;20693;-81
2022/08/09 05:07:42;;;;;;;1.50;0.40;;;12.60;99.90;;;;;;5007136;28;20512;-81
2022/08/09 05:10:08;;;;;;;1.27;0.60;;;12.70;99.90;;;;;;5042803;28;20395;-81
2022/08/09 05:12:34;;;;;;;0.82;0.43;;;12.70;99.90;;;;;;5029670;28;20523;-81
2022/08/09 05:15:00;;;;;;;2.42;0.60;;;12.80;99.90;;;;;;5005377;28;20049;-81
2022/08/09 05:17:26;;;;;;;1.10;0.50;;;12.80;99.90;;;;;;5023317;28;20069;-81
2022/08/09 05:19:52;;;;;;;0.63;0.50;;;12.90;99.90;;;;;;5026264;28;20063;-80
2022/08/09 05:22:18;;;;;;;1.35;0.70;;;13.00;99.90;;;;;;5041746;28;20291;-81
2022/08/09 05:24:43;;;;;;;1.27;1.00;;;13.10;99.90;;;;;;5026165;28;20041;-80
2022/08/09 05:27:10;;;;;;;1.48;0.80;;;13.20;99.90;;;;;;5038124;28;20041;-81
2022/08/09 05:29:36;;;;;;;1.55;0.88;;;13.30;99.90;;;;;;5027575;28;20040;-81
2022/08/09 05:32:02;;;;;;;1.03;0.80;;;13.50;99.90;;;;;;5045078;28;20053;-81
2022/08/09 05:34:30;;;;;;;1.30;0.98;;;13.60;99.90;;;;;;5006621;28;20802;-81
2022/08/09 05:36:56;;;;;;;3.25;0.90;;;13.60;99.90;;;;;;5009000;28;20045;-81
2022/08/09 05:39:22;;;;;;;;;;;13.80;99.90;;;;;;5044327;28;20132;-81
2022/08/09 05:41:48;;;;;;;1.92;0.90;;;13.90;99.90;;;;;;5039292;28;19924;-81
2022/08/09 05:44:14;;;;;;;1.58;0.93;;;14.00;99.90;;;;;;5024385;28;20041;-81
2022/08/09 05:46:40;;;;;;;1.40;1.10;;;14.20;99.90;;;;;;5016098;28;20056;-82
2022/08/09 05:49:06;;;;;;;2.03;1.25;;;14.30;99.90;;;;;;5040592;28;20065;-82
2022/08/09 05:51:32;;;;;;;3.08;1.45;;;14.50;99.90;;;;;;5024569;28;20502;-82
2022/08/09 05:53:58;;;;;;;2.00;1.20;;;14.70;99.90;;;;;;5043448;28;20124;-82
2022/08/09 05:56:24;;;;;;;2.70;1.33;;;14.90;99.90;;;;;;5029496;28;20291;-82
2022/08/09 05:58:50;;;;;;;2.97;1.40;;;15.10;99.90;;;;;;5001211;28;20036;-82
2022/08/09 06:01:16;;;;;;;2.78;1.67;;;15.20;99.90;;;;;;4999077;28;20497;-82
2022/08/09 06:03:41;;;;;;;3.15;1.70;;;15.40;99.90;;;;;;5043053;28;20033;-82
2022/08/09 06:06:07;;;;;;;3.33;1.60;;;15.60;99.90;;;;;;5016083;28;20037;-81
2022/08/09 06:08:33;;;;;;;4.00;2.00;;;15.70;99.90;;;;;;5038817;28;20120;-81
2022/08/09 06:10:58;;;;;;;3.70;2.00;;;15.90;99.90;;;;;;5015525;28;20086;-81
2022/08/09 06:13:25;;;;;;;5.00;2.10;;;16.00;99.90;;;;;;5040460;28;20041;-81
2022/08/09 06:15:51;;;;;;;4.40;1.95;;;16.20;99.90;;;;;;5031103;28;20122;-81
2022/08/09 06:18:17;;;;;;;4.47;2.28;;;16.40;99.90;;;;;;5024964;28;20044;-81
2022/08/09 06:20:42;;;;;;;4.82;2.20;;;16.60;99.90;;;;;;5023521;28;20037;-80
2022/08/09 06:23:08;;;;;;;4.88;2.10;;;17.00;99.90;;;;;;5012523;28;20128;-81
2022/08/09 06:25:34;;;;;;;4.45;2.25;;;17.50;99.90;;;;;;5034739;28;20038;-82
2022/08/09 06:28:00;;;;;;;5.63;1.98;;;18.20;99.90;;;;;;5028909;28;20046;-82
2022/08/09 06:30:25;;;;;;;3.22;1.67;;;18.80;99.90;;;;;;5014398;28;20528;-82
2022/08/09 06:32:51;;;;;;;2.95;1.83;;;19.30;99.90;;;;;;5040686;28;20399;-82
2022/08/09 06:35:18;;;;;;;4.32;1.95;;;19.90;99.90;;;;;;5016940;28;20044;-81
2022/08/09 06:37:44;;;;;;;3.47;1.70;;;20.50;99.90;;;;;;5042956;28;20413;-81
2022/08/09 06:40:10;;;;;;;4.85;1.48;;;21.00;99.90;;;;;;5042587;28;20030;-81
2022/08/09 06:42:36;;;;;;;4.28;1.15;;;21.10;99.90;;;;;;5046769;28;20374;-81
2022/08/09 06:45:03;;;;;;;4.20;1.20;;;21.20;99.90;;;;;;5047832;28;20037;-82
2022/08/09 06:47:28;;;;;;;3.78;1.27;;;21.50;99.90;;;;;;5012678;28;20591;-82
2022/08/09 06:49:54;;;;;;;2.67;0.90;;;21.80;99.90;;;;;;5045762;28;20120;-82
2022/08/09 06:52:20;;;;;;;2.10;0.63;;;22.10;99.90;;;;;;5030967;28;20041;-82
2022/08/09 06:54:46;;;;;;;1.67;0.70;;;22.10;99.90;;;;;;5012221;28;20045;-82
2022/08/09 06:57:11;;;;;;;2.63;0.80;;;21.90;99.90;;;;;;5028059;28;20069;-81
2022/08/09 06:59:37;;;;;;;3.08;0.88;;;22.10;99.90;;;;;;5019630;28;20484;-81
2022/08/09 07:02:03;;;;;;;1.85;0.55;;;22.10;99.90;;;;;;5035150;28;20072;-82
2022/08/09 07:04:29;;;;;;;2.17;0.60;;;22.10;99.90;;;;;;5028882;28;20104;-81
2022/08/09 07:06:54;;;;;;;1.98;0.68;;;22.40;99.90;;;;;;5036905;28;20038;-81
2022/08/09 07:09:20;;;;;;;2.58;0.57;;;22.50;99.90;;;;;;5049650;28;20441;-81
2022/08/09 07:11:47;;;;;;;2.10;0.70;;;22.40;99.90;;;;;;5055934;28;20033;-82
2022/08/09 07:14:16;;;;;;;2.35;0.63;;;22.70;99.90;;;;;;5017843;28;20057;-82
2022/08/09 07:16:43;;;;;;;2.10;0.80;;;23.00;99.90;;;;;;5018408;28;20053;-81
2022/08/09 07:19:10;;;;;;;2.08;0.70;;;23.10;99.90;;;;;;5051451;28;20041;-80
2022/08/09 07:21:37;;;;;;;1.90;0.60;;;23.10;99.90;;;;;;5049073;28;20045;-82
2022/08/09 07:24:03;;;;;;;1.55;0.70;;;23.20;99.90;;;;;;5043269;28;20052;-81
2022/08/09 07:26:29;;;;;;;2.72;0.70;;;23.10;99.90;;;;;;5037974;28;20036;-81
2022/08/09 07:28:55;;;;;;;;;;;23.50;99.90;;;;;;5028921;28;20106;-82
2022/08/09 07:31:21;;;;;;;3.58;0.60;;;23.50;99.90;;;;;;5044049;28;19924;-80
2022/08/09 07:33:48;;;;;;;;;;;23.40;99.90;;;;;;5020361;28;20094;-81
2022/08/09 07:36:14;;;;;;;2.95;0.70;;;23.70;99.90;;;;;;5029440;28;19972;-81
2022/08/09 07:38:40;;;;;;;3.20;1.08;;;23.50;99.90;;;;;;5028012;28;20033;-81
2022/08/09 07:41:05;;;;;;;;;;;23.70;99.90;;;;;;5036670;28;20048;-81
2022/08/09 07:43:31;;;;;;;2.80;0.80;;;23.60;99.90;;;;;;5033776;28;19917;-81
2022/08/09 07:45:56;;;;;;;;;;;23.60;99.90;;;;;;5030984;28;20071;-81
2022/08/09 07:48:22;;;;;;;2.67;0.82;;;23.50;99.90;;;;;;5035550;28;20047;-81
2022/08/09 07:50:48;;;;;;;;;;;23.20;99.90;;;;;;5041071;28;20037;-82
2022/08/09 07:53:14;;;;;;;3.05;0.73;;;23.20;99.90;;;;;;5046208;28;19921;-82
2022/08/09 07:55:39;;;;;;;;;;;23.50;99.90;;;;;;5047027;28;20041;-79
2022/08/09 07:58:05;;;;;;;2.35;0.63;;;23.20;99.90;;;;;;5044235;28;19927;-82
2022/08/09 08:00:31;;;;;;;;;;;23.50;99.90;;;;;;5026449;28;20064;-82
2022/08/09 08:02:58;;;;;;;1.63;0.50;;;23.90;99.90;;;;;;5035701;28;20524;-81
2022/08/09 08:05:24;;;;;;;3.95;0.90;;;24.10;99.90;;;;;;5046461;28;20077;-81
2022/08/09 08:07:50;;;;;;;;;;;23.70;99.90;;;;;;5039821;28;20528;-81
2022/08/09 08:10:17;;;;;;;2.13;0.57;;;23.20;99.90;;;;;;5041279;28;20883;-81
2022/08/09 08:12:43;;;;;;;1.70;0.60;;;22.70;99.90;;;;;;5040926;28;20125;-81
2022/08/09 08:15:10;;;;;;;2.30;0.60;;;22.50;99.90;;;;;;5036048;28;20064;-80
2022/08/09 08:17:36;;;;;;;2.78;0.80;;;22.20;99.90;;;;;;5040759;28;20033;-81
2022/08/09 08:20:02;;;;;;;;;;;21.90;99.90;;;;;;5030660;28;20090;-80
2022/08/09 08:22:28;;;;;;;3.22;0.50;;;21.70;99.90;;;;;;5039652;28;19923;-80
2022/08/09 08:24:56;;;;;;;3.63;0.50;;;21.50;99.90;;;;;;5043709;28;20158;-80
2022/08/09 08:27:24;;;;;;;0.85;0.50;;;21.50;99.90;;;;;;5028800;28;20048;-80
2022/08/09 08:29:50;;;;;;;1.63;0.60;;;21.50;99.90;;;;;;5036109;28;20052;-81
2022/08/09 08:32:17;;;;;;;1.85;0.60;;;21.60;99.90;;;;;;5049045;28;20033;-81
2022/08/09 08:34:42;;;;;;;2.45;0.40;;;21.50;99.90;;;;;;5043988;28;20049;-81
2022/08/09 08:37:08;;;;;;;2.08;0.50;;;21.50;99.90;;;;;;5041798;28;20103;-81
2022/08/09 08:39:34;;;;;;;1.67;0.45;;;21.40;99.90;;;;;;5044562;28;20114;-80
2022/08/09 08:42:00;;;;;;;1.65;0.50;;;21.30;99.90;;;;;;5026857;28;20087;-81
2022/08/09 08:44:27;;;;;;;;;;;21.30;99.90;;;;;;5051917;28;20033;-81
2022/08/09 08:46:53;;;;;;;2.15;0.50;;;21.40;99.90;;;;;;5037348;28;19924;-81
2022/08/09 08:49:20;;;;;;;2.65;0.45;;;21.90;99.90;;;;;;5045340;28;20045;-80
2022/08/09 08:51:46;;;;;;;1.67;0.38;;;22.50;99.90;;;;;;5022325;28;20577;-81
2022/08/09 08:54:13;;;;;;;1.02;0.30;;;23.10;99.90;;;;;;5035181;28;20114;-80
2022/08/09 08:56:39;;;;;;;1.38;0.30;;;23.70;99.90;;;;;;5050246;28;20516;-79
2022/08/09 08:59:09;;;;;;;1.17;0.30;;;24.40;99.90;;;;;;5049931;28;20106;-81
2022/08/09 09:01:36;;;;;;;1.10;0.38;;;24.90;99.90;;;;;;5026946;28;20033;-80
2022/08/09 09:04:03;;;;;;;1.85;0.30;;;25.00;99.90;;;;;;5041745;28;20037;-81
2022/08/09 09:06:30;;;;;;;0.22;0.10;;;25.20;99.90;;;;;;5035992;28;20056;-81
2022/08/09 09:08:58;;;;;;;1.20;0.75;;;25.60;99.90;;;;;;5051935;28;20037;-81
2022/08/09 09:11:26;;;;;;;0.77;0.20;;;26.10;99.90;;;;;;5044315;28;20501;-81
2022/08/09 09:13:56;;;;;;;0.88;0.20;;;26.50;99.50;;;;;;5046782;28;20040;-81
2022/08/09 09:16:22;;;;;;;0.68;0.10;;;26.60;98.50;;;;;;5039406;28;20128;-81
2022/08/09 09:18:53;;;;;;;1.65;0.40;;;26.80;97.90;;;;;;5051214;28;20209;-81
2022/08/09 09:21:19;;;;;;;1.55;0.20;;;26.90;98.30;;;;;;5042500;28;20522;-81
2022/08/09 09:23:45;;;;;;;0.20;0.10;;;27.00;98.00;;;;;;5031361;28;20033;-80
2022/08/09 09:26:13;;;;;;;1.42;0.20;;;27.40;98.60;;;;;;5041131;28;20138;-79
2022/08/09 09:28:45;;;;;;;0.45;0.25;;;27.40;97.30;;;;;;5028656;28;20060;-80
2022/08/09 09:31:15;;;;;;;1.35;0.20;;;27.00;96.80;;;;;;5055098;28;20489;-81
2022/08/09 09:33:41;;;;;;;1.02;0.10;;;27.00;97.30;;;;;;5025017;28;20415;-81
2022/08/09 09:36:08;;;;;;;0.73;0.20;;;27.00;97.10;;;;;;5047487;28;20072;-80
2022/08/09 09:38:58;;;;;;;1.63;0.20;;;27.20;97.60;;;;;;5050232;28;20033;-80
2022/08/09 09:41:25;;;;;;;1.05;0.10;;;27.20;96.90;;;;;;5050275;28;20090;-81
2022/08/09 09:43:55;;;;;;;0.80;0.30;;;27.70;97.10;;;;;;5044543;28;20460;-81
2022/08/09 09:46:32;;;;;;;1.52;0.20;;;28.00;97.80;;;;;;5033633;28;20451;-80
2022/08/09 09:49:01;;;;;;;2.38;0.50;;;28.30;97.20;;;;;;5040406;28;20044;-80
2022/08/09 09:51:30;;;;;;;1.58;0.50;;;27.70;97.10;;;;;;5044662;28;20380;-81
2022/08/09 09:54:06;;;;;;;0.63;0.10;;;27.60;98.10;;;;;;5033581;28;20438;-81
2022/08/09 09:56:34;;;;;;;1.15;0.30;;;27.30;97.40;;;;;;5047414;28;20060;-80
2022/08/09 09:59:00;;;;;;;0.70;0.20;;;27.30;97.90;;;;;;5033185;28;20045;-82
2022/08/09 10:01:28;;;;;;;0.98;0.30;;;27.00;97.40;;;;;;5030245;28;20046;-80
2022/08/09 10:03:54;;;;;;;0.98;0.30;;;26.60;97.90;;;;;;5047626;28;20043;-80
2022/08/09 10:06:19;;;;;;;1.80;0.30;;;26.70;98.00;;;;;;5045848;28;20528;-80
2022/08/09 10:08:47;;;;;;;1.63;0.32;;;27.10;98.40;;;;;;5040928;28;20042;-80
2022/08/09 10:11:20;;;;;;;1.77;0.22;;;26.80;97.50;;;;;;5035850;28;20045;-79
2022/08/09 10:13:47;;;;;;;1.65;0.30;;;26.90;97.40;;;;;;5035131;28;20037;-80
2022/08/09 10:16:14;;;;;;;2.80;0.55;;;27.00;97.90;;;;;;5045723;28;20059;-81
2022/08/09 10:18:52;;;;;;;1.45;0.20;;;27.30;98.10;;;;;;5048578;28;20151;-80
2022/08/09 10:21:18;;;;;;;1.30;0.20;;;27.70;97.10;;;;;;5050532;28;20043;-81
2022/08/09 10:23:44;;;;;;;1.17;0.22;;;28.10;97.30;;;;;;5047702;28;20045;-80
2022/08/09 10:26:11;;;;;;;1.60;0.20;;;28.70;96.80;;;;;;5021919;28;20063;-80
2022/08/09 10:28:38;;;;;;;0.88;0.20;;;28.70;96.00;;;;;;5021069;28;20047;-80
2022/08/09 10:31:09;;;;;;;1.98;0.20;;;28.20;95.50;;;;;;5050844;28;20080;-80
2022/08/09 10:33:36;;;;;;;1.05;0.30;;;28.60;96.50;;;;;;5035623;28;20393;-80
2022/08/09 10:36:04;;;;;;;0.52;0.13;;;28.60;95.80;;;;;;5049800;28;20048;-81
2022/08/09 10:38:30;;;;;;;0.90;0.20;;;28.50;95.50;;;;;;5049392;28;20044;-81
2022/08/09 10:40:56;;;;;;;1.30;0.20;;;28.80;95.80;;;;;;5014541;28;20036;-80
2022/08/09 10:43:22;;;;;;;0.98;0.20;;;29.10;95.90;;;;;;5033291;28;20037;-80
2022/08/09 10:45:48;;;;;;;0.32;0.20;;;28.60;95.80;;;;;;5049657;28;20036;-80
2022/08/09 10:48:30;;;;;;;0.20;0.10;;;28.90;96.30;;;;;;5019385;28;20064;-80
2022/08/09 10:51:08;;;;;;;1.08;0.15;;;29.20;95.50;;;;;;5032222;28;20033;-80
2022/08/09 10:54:04;;;;;;;0.28;0.10;;;28.90;95.00;;;;;;5031501;28;20049;-80
2022/08/09 10:56:33;;;;;;;0.80;0.22;;;28.10;95.40;;;;;;5018341;28;20052;-80
2022/08/09 10:59:22;;;;;;;0.73;0.20;;;27.60;96.00;;;;;;5019011;28;20490;-80
2022/08/09 11:01:49;;;;;;;2.85;0.28;;;28.10;96.20;;;;;;5045789;28;20037;-80
2022/08/09 11:04:26;;;;;;;1.65;0.13;;;28.00;95.90;;;;;;5030761;28;20034;-80
2022/08/09 11:06:57;;;;;;;0.60;0.20;;;28.00;96.10;;;;;;5049587;28;20041;-80
2022/08/09 11:09:42;;;;;;;0.60;0.20;;;28.50;96.10;;;;;;5039828;28;20174;-80
2022/08/09 11:12:17;;;;;;;0.10;0.10;;;29.00;95.40;;;;;;5039644;28;20160;-80
2022/08/09 11:14:57;;;;;;;1.67;0.20;;;29.30;94.70;;;;;;5031787;28;20140;-81
2022/08/09 11:17:23;;;;;;;0.88;0.20;;;29.80;95.50;;;;;;5029186;28;20036;-80
2022/08/09 11:19:57;;;;;;;0.50;0.20;;;29.80;95.30;;;;;;5040141;28;20045;-80
2022/08/09 11:22:43;;;;;;;0.85;0.10;;;29.80;94.60;;;;;;5041967;28;20026;-79
2022/08/09 11:25:09;;;;;;;0.77;0.20;;;29.90;95.30;;;;;;5046606;28;20099;-80
2022/08/09 11:27:39;;;;;;;0.75;0.20;;;30.00;95.20;;;;;;5038514;28;20045;-81
2022/08/09 11:30:10;;;;;;;0.47;0.20;;;30.00;94.80;;;;;;5035665;28;20116;-80
2022/08/09 11:32:39;;;;;;;0.65;0.10;;;29.90;95.20;;;;;;5032313;28;20033;-80
2022/08/09 11:35:31;;;;;;;0.45;0.20;;;29.50;94.60;;;;;;5048843;28;20048;-79
2022/08/09 11:37:58;;;;;;;0.85;0.20;;;29.80;94.70;;;;;;5037120;28;20107;-79
2022/08/09 11:40:30;;;;;;;2.05;0.55;;;29.90;94.40;;;;;;5041741;28;20124;-80
2022/08/09 11:42:58;;;;;;;1.23;0.20;;;30.10;94.30;;;;;;5049009;28;20499;-80
2022/08/09 11:45:42;;;;;;;3.47;0.30;;;30.20;94.10;;;;;;5048828;28;20041;-80
2022/08/09 11:48:10;;;;;;;0.60;0.22;;;30.50;94.60;;;;;;5048117;28;20076;-80
2022/08/09 11:51:02;;;;;;;0.63;0.10;;;30.70;94.40;;;;;;5032748;28;20041;-80
2022/08/09 11:53:30;;;;;;;0.63;0.20;;;31.00;94.30;;;;;;5036123;28;20444;-80
2022/08/09 11:55:58;;;;;;;0.60;0.20;;;31.10;94.00;;;;;;5031454;28;20144;-80
2022/08/09 11:58:27;;;;;;;0.75;0.20;;;31.00;94.20;;;;;;5028241;28;20042;-80
2022/08/09 12:01:05;;;;;;;1.60;0.20;;;31.30;93.60;;;;;;5028820;28;20132;-79
2022/08/09 12:03:31;;;;;;;0.50;0.22;;;31.30;93.80;;;;;;5046187;28;20033;-80
2022/08/09 12:06:00;;;;;;;0.32;0.20;;;30.60;93.00;;;;;;5048025;28;20052;-80
2022/08/09 12:08:27;;;;;;;2.65;0.20;;;30.00;93.80;;;;;;5042396;28;20060;-80
2022/08/09 12:10:58;;;;;;;0.32;0.10;;;30.50;93.70;;;;;;5048181;28;20040;-79
2022/08/09 12:13:35;;;;;;;0.70;0.20;;;31.00;93.80;;;;;;5051972;28;20044;-79
2022/08/09 12:16:07;;;;;;;1.27;0.30;;;31.10;93.00;;;;;;5052374;28;20115;-80
2022/08/09 12:18:34;;;;;;;0.30;0.20;;;31.20;93.30;;;;;;5030333;28;20429;-80
2022/08/09 12:21:03;;;;;;;0.35;0.28;;;31.00;93.50;;;;;;5032706;28;20485;-81
2022/08/09 12:23:31;;;;;;;2.50;0.30;;;30.70;93.10;;;;;;5041862;28;20047;-80
2022/08/09 12:25:57;;;;;;;0.50;0.20;;;30.50;93.40;;;;;;5031967;28;20069;-79
2022/08/09 12:28:24;;;;;;;1.95;0.20;;;30.30;93.30;;;;;;5024720;28;20093;-78
2022/08/09 12:30:50;;;;;;;0.80;0.30;;;30.90;93.80;;;;;;5051032;28;20037;-78
2022/08/09 12:33:17;;;;;;;0.98;0.28;;;30.50;93.40;;;;;;5028969;28;20044;-80
2022/08/09 12:35:44;;;;;;;0.68;0.20;;;30.50;93.30;;;;;;5049017;28;20045;-79
2022/08/09 12:38:29;;;;;;;0.63;0.20;;;30.20;93.60;;;;;;5047969;28;20385;-79
2022/08/09 12:40:56;;;;;;;0.60;0.30;;;30.20;93.50;;;;;;5056911;28;20456;-80
2022/08/09 12:43:25;;;;;;;0.80;0.30;;;30.70;93.50;;;;;;5045141;28;20038;-79
2022/08/09 12:45:53;;;;;;;1.85;0.20;;;30.40;93.50;;;;;;5026816;28;20449;-80
2022/08/09 12:48:19;;;;;;;1.08;0.43;;;30.10;93.20;;;;;;5036082;28;20077;-78
2022/08/09 12:50:47;;;;;;;3.50;0.47;;;30.10;93.30;;;;;;5026446;28;20045;-80
2022/08/09 12:53:42;;;;;;;0.55;0.30;;;30.10;93.50;;;;;;5042348;28;20042;-80
2022/08/09 12:56:18;;;;;;;0.70;0.20;;;30.10;93.40;;;;;;5021525;28;20045;-79